Time;durP1;ratioP1;P1;durP2;ratioP2;P2;SDS_P1;SDS_P2;PMS_P1;PMS_P2;Temp;Humidity;BMP_temperature;BMP_pressure;BME280_temperature;BME280_humidity;BME280_pressure;Samples;Min_cycle;Max_cycle;Signal;HPM_P1;HPM_P2
2022/10/04 00:01:05;;;;;;;19.27;11.20;;;11.20;99.90;;;;;;5116602;28;20206;-84
2022/10/04 00:03:36;;;;;;;20.60;11.20;;;11.20;99.90;;;;;;5116614;28;20206;-84
2022/10/04 00:06:06;;;;;;;18.17;11.23;;;11.20;99.90;;;;;;5116015;28;20244;-84
2022/10/04 00:08:41;;;;;;;22.10;11.50;;;11.10;99.90;;;;;;5116705;28;20246;-84
2022/10/04 00:11:17;;;;;;;14.57;10.70;;;11.10;99.90;;;;;;5116907;28;20250;-84
2022/10/04 00:13:49;;;;;;;16.27;11.33;;;11.10;99.90;;;;;;5116429;28;20190;-84
2022/10/04 00:16:23;;;;;;;19.53;11.47;;;11.00;99.90;;;;;;5116461;28;20197;-84
2022/10/04 00:19:01;;;;;;;20.30;11.60;;;11.00;99.90;;;;;;5116634;28;20200;-84
2022/10/04 00:22:07;;;;;;;16.73;11.80;;;10.90;99.90;;;;;;5116324;28;20190;-84
2022/10/04 00:24:35;;;;;;;23.60;10.83;;;10.90;99.90;;;;;;5091446;28;20210;-84
2022/10/04 00:27:22;;;;;;;19.20;11.80;;;10.90;99.90;;;;;;5116609;28;20225;-84
2022/10/04 00:30:11;;;;;;;21.37;11.63;;;10.90;99.90;;;;;;5116160;28;20210;-84
2022/10/04 00:32:59;;;;;;;16.77;12.13;;;10.90;99.90;;;;;;5115680;28;20204;-84
2022/10/04 00:35:50;;;;;;;19.70;11.93;;;10.90;99.90;;;;;;5116409;28;20214;-84
2022/10/04 00:38:26;;;;;;;14.23;11.93;;;10.80;99.90;;;;;;5116242;28;20250;-84
2022/10/04 00:40:59;;;;;;;17.93;12.13;;;10.80;99.90;;;;;;5115656;28;20202;-83
2022/10/04 00:43:32;;;;;;;18.23;11.73;;;10.80;99.90;;;;;;5115711;28;20213;-83
2022/10/04 00:46:03;;;;;;;16.10;12.13;;;10.80;99.90;;;;;;5115126;28;20232;-83
2022/10/04 00:48:44;;;;;;;20.50;11.97;;;10.80;99.90;;;;;;5115899;28;20213;-84
2022/10/04 00:51:22;;;;;;;17.50;11.83;;;10.80;99.90;;;;;;5115611;28;20204;-84
2022/10/04 00:54:00;;;;;;;19.33;11.70;;;10.80;99.90;;;;;;5114478;28;20622;-84
2022/10/04 00:56:32;;;;;;;13.90;11.23;;;10.80;99.90;;;;;;5115436;28;20202;-83
2022/10/04 00:59:27;;;;;;;16.90;12.30;;;10.90;99.90;;;;;;5115493;28;20292;-84
2022/10/04 01:01:59;;;;;;;21.27;16.10;;;10.90;99.90;;;;;;5114671;28;20439;-84
2022/10/04 01:04:37;;;;;;;19.17;13.47;;;11.10;99.90;;;;;;5115529;28;20206;-84
2022/10/04 01:07:06;;;;;;;18.77;12.23;;;11.10;99.90;;;;;;5115316;28;20233;-84
2022/10/04 01:09:36;;;;;;;20.97;13.13;;;11.10;99.90;;;;;;5115519;28;20208;-84
2022/10/04 01:12:10;;;;;;;17.30;12.47;;;11.10;99.90;;;;;;5115072;28;20206;-84
2022/10/04 01:14:53;;;;;;;17.50;12.40;;;11.00;99.90;;;;;;5115288;28;20201;-83
2022/10/04 01:17:21;;;;;;;23.70;13.20;;;10.90;99.90;;;;;;5114945;28;20209;-84
2022/10/04 01:19:53;;;;;;;16.17;12.53;;;10.90;99.90;;;;;;5115324;28;20216;-84
2022/10/04 01:22:35;;;;;;;23.30;12.20;;;10.90;99.90;;;;;;5114799;28;20216;-84
2022/10/04 01:25:02;;;;;;;19.23;13.10;;;10.90;99.90;;;;;;5115107;28;20246;-84
2022/10/04 01:27:37;;;;;;;20.63;13.90;;;10.90;99.90;;;;;;5114508;28;20239;-84
2022/10/04 01:30:09;;;;;;;25.23;13.77;;;10.90;99.90;;;;;;5115255;28;20207;-85
2022/10/04 01:32:37;;;;;;;20.80;14.30;;;10.90;99.90;;;;;;5114863;28;20204;-83
2022/10/04 01:35:05;;;;;;;37.27;13.90;;;10.80;99.90;;;;;;5114586;28;20219;-83
2022/10/04 01:37:34;;;;;;;18.10;13.83;;;10.80;99.90;;;;;;5114785;28;20654;-84
2022/10/04 01:40:01;;;;;;;20.47;14.20;;;10.80;99.90;;;;;;5114558;28;20652;-84
2022/10/04 01:42:36;;;;;;;21.87;13.40;;;10.70;99.90;;;;;;5114750;28;20285;-84
2022/10/04 01:45:09;;;;;;;19.00;12.13;;;10.70;99.90;;;;;;5114623;28;20682;-85
2022/10/04 01:47:40;;;;;;;17.63;13.23;;;10.60;99.90;;;;;;5114858;28;20714;-84
2022/10/04 01:50:14;;;;;;;17.53;13.07;;;10.60;99.90;;;;;;5114609;28;20664;-84
2022/10/04 01:52:46;;;;;;;17.67;13.50;;;10.50;99.90;;;;;;5114225;28;20674;-83
2022/10/04 01:55:17;;;;;;;22.53;12.63;;;10.50;99.90;;;;;;5112194;28;20269;-85
2022/10/04 01:57:49;;;;;;;20.90;14.05;;;10.40;99.90;;;;;;5110723;28;20444;-84
2022/10/04 02:00:16;;;;;;;19.73;13.43;;;10.30;99.90;;;;;;5112606;28;20196;-84
2022/10/04 02:02:50;;;;;;;23.37;14.23;;;10.20;99.90;;;;;;5111963;28;20224;-84
2022/10/04 02:05:26;;;;;;;17.23;13.07;;;10.20;99.90;;;;;;5114011;28;20200;-84
2022/10/04 02:07:57;;;;;;;20.80;13.27;;;10.20;99.90;;;;;;5114222;28;20211;-84
2022/10/04 02:10:25;;;;;;;21.17;13.83;;;10.20;99.90;;;;;;5114438;28;20203;-85
2022/10/04 02:12:56;;;;;;;22.13;13.87;;;10.30;99.90;;;;;;5114132;28;20200;-84
2022/10/04 02:15:27;;;;;;;22.83;14.93;;;10.20;99.90;;;;;;5114358;28;20198;-85
2022/10/04 02:17:56;;;;;;;19.93;13.70;;;10.30;99.90;;;;;;5113948;28;20212;-84
2022/10/04 02:20:26;;;;;;;22.37;14.33;;;10.30;99.90;;;;;;5114163;28;20204;-85
2022/10/04 02:22:58;;;;;;;23.03;14.20;;;10.30;99.90;;;;;;5114046;28;20193;-84
2022/10/04 02:25:25;;;;;;;21.20;14.30;;;10.30;99.90;;;;;;5114220;28;20192;-85
2022/10/04 02:27:53;;;;;;;24.65;18.75;;;10.30;99.90;;;;;;5113326;28;20432;-84
2022/10/04 02:30:23;;;;;;;18.80;15.00;;;10.30;99.90;;;;;;5114217;28;20194;-84
2022/10/04 02:32:56;;;;;;;20.30;14.67;;;10.40;99.90;;;;;;5113716;28;20201;-84
2022/10/04 02:35:26;;;;;;;18.50;13.77;;;10.30;99.90;;;;;;5113917;28;20244;-85
2022/10/04 02:38:05;;;;;;;22.13;13.93;;;10.30;99.90;;;;;;5113735;28;20567;-84
2022/10/04 02:40:39;;;;;;;21.60;14.13;;;10.20;99.90;;;;;;5114070;28;20192;-84
2022/10/04 02:43:11;;;;;;;26.97;14.37;;;10.20;99.90;;;;;;5110743;28;20648;-84
2022/10/04 02:45:46;;;;;;;20.20;13.67;;;10.20;99.90;;;;;;5113463;28;20212;-84
2022/10/04 02:48:32;;;;;;;19.70;14.07;;;10.20;99.90;;;;;;5112923;28;20260;-84
2022/10/04 02:51:05;;;;;;;23.83;13.90;;;10.10;99.90;;;;;;5113540;28;20208;-84
2022/10/04 02:53:44;;;;;;;16.87;13.67;;;10.10;99.90;;;;;;5113386;28;20211;-84
2022/10/04 02:56:12;;;;;;;27.98;18.90;;;10.00;99.90;;;;;;5113021;28;20428;-85
2022/10/04 02:58:41;;;;;;;25.27;15.20;;;10.00;99.90;;;;;;5113757;28;20201;-84
2022/10/04 03:01:15;;;;;;;20.93;14.70;;;10.00;99.90;;;;;;5113629;28;20200;-85
2022/10/04 03:03:46;;;;;;;24.03;15.53;;;10.00;99.90;;;;;;5113494;28;20225;-85
2022/10/04 03:06:16;;;;;;;22.30;15.73;;;10.10;99.90;;;;;;5113243;28;20228;-85
2022/10/04 03:08:50;;;;;;;33.27;18.00;;;10.10;99.90;;;;;;5115320;28;20253;-85
2022/10/04 03:11:21;;;;;;;22.40;15.23;;;10.00;99.90;;;;;;5117857;28;20211;-84
2022/10/04 03:13:52;;;;;;;20.80;15.33;;;10.00;99.90;;;;;;5117786;28;20197;-84
2022/10/04 03:16:19;;;;;;;21.93;14.50;;;9.90;99.90;;;;;;5117402;28;20566;-83
2022/10/04 03:18:48;;;;;;;24.07;15.40;;;9.90;99.90;;;;;;5117547;28;20211;-84
2022/10/04 03:21:17;;;;;;;24.93;14.90;;;9.80;99.90;;;;;;5117589;28;20203;-85
2022/10/04 03:23:53;;;;;;;21.60;14.47;;;9.90;99.90;;;;;;5117313;28;20195;-85
2022/10/04 03:26:28;;;;;;;28.73;21.23;;;9.80;99.90;;;;;;5116063;28;20918;-85
2022/10/04 03:28:55;;;;;;;25.63;17.03;;;9.90;99.90;;;;;;5118038;28;20204;-84
2022/10/04 03:31:26;;;;;;;23.90;15.87;;;9.80;99.90;;;;;;5117289;28;20188;-85
2022/10/04 03:33:54;;;;;;;28.37;15.50;;;9.70;99.90;;;;;;5117669;28;20221;-84
2022/10/04 03:36:24;;;;;;;21.43;16.03;;;9.70;99.90;;;;;;5116594;28;20675;-85
2022/10/04 03:38:55;;;;;;;26.83;15.13;;;9.70;99.90;;;;;;5117565;28;20193;-84
2022/10/04 03:41:24;;;;;;;21.43;14.47;;;9.70;99.90;;;;;;5117049;28;20208;-85
2022/10/04 03:43:54;;;;;;;22.43;15.20;;;9.80;99.90;;;;;;5116269;28;20231;-84
2022/10/04 03:46:23;;;;;;;22.43;16.00;;;9.70;99.90;;;;;;5116772;28;20261;-85
2022/10/04 03:48:55;;;;;;;23.10;14.83;;;9.50;99.90;;;;;;5117024;28;20201;-85
2022/10/04 03:51:24;;;;;;;23.50;14.07;;;9.60;99.90;;;;;;5117099;28;20185;-85
2022/10/04 03:53:56;;;;;;;29.43;19.40;;;9.60;99.90;;;;;;5116593;28;20460;-85
2022/10/04 03:56:28;;;;;;;30.77;17.33;;;9.70;99.90;;;;;;5116868;28;20232;-85
2022/10/04 03:58:57;;;;;;;26.13;15.50;;;9.70;99.90;;;;;;5116642;28;20204;-85
2022/10/04 04:01:36;;;;;;;27.40;16.20;;;9.70;99.90;;;;;;5116623;28;20592;-85
2022/10/04 04:04:14;;;;;;;27.57;16.37;;;9.70;99.90;;;;;;5117153;28;20192;-85
2022/10/04 04:06:52;;;;;;;25.63;15.83;;;9.80;99.90;;;;;;5116067;28;20717;-85
2022/10/04 04:09:25;;;;;;;30.03;16.57;;;9.80;99.90;;;;;;5116817;28;20203;-85
2022/10/04 04:11:57;;;;;;;38.87;16.97;;;9.80;99.90;;;;;;5116277;28;20252;-84
2022/10/04 04:14:27;;;;;;;27.73;17.10;;;9.80;99.90;;;;;;5116725;28;20207;-85
2022/10/04 04:17:15;;;;;;;25.70;16.60;;;9.70;99.90;;;;;;5116188;28;20679;-85
2022/10/04 04:19:44;;;;;;;26.57;17.47;;;9.70;99.90;;;;;;5115414;28;20204;-84
2022/10/04 04:22:16;;;;;;;32.25;19.02;;;9.80;99.90;;;;;;5115803;28;20440;-85
2022/10/04 04:24:46;;;;;;;25.63;17.70;;;9.80;99.90;;;;;;5116524;28;20571;-84
2022/10/04 04:27:16;;;;;;;28.23;16.50;;;9.70;99.90;;;;;;5116105;28;20226;-85
2022/10/04 04:29:49;;;;;;;25.83;16.27;;;9.80;99.90;;;;;;5116404;28;20205;-84
2022/10/04 04:32:23;;;;;;;27.30;16.57;;;9.80;99.90;;;;;;5116157;28;20211;-84
2022/10/04 04:34:51;;;;;;;31.03;16.30;;;9.80;99.90;;;;;;5115985;28;20208;-84
2022/10/04 04:37:19;;;;;;;24.97;16.07;;;9.80;99.90;;;;;;5115956;28;20245;-84
2022/10/04 04:39:53;;;;;;;23.20;16.33;;;9.70;99.90;;;;;;5116288;28;20184;-84
2022/10/04 04:42:26;;;;;;;24.33;15.43;;;9.80;99.90;;;;;;5116083;28;20200;-85
2022/10/04 04:44:59;;;;;;;26.97;16.00;;;9.80;99.90;;;;;;5116227;28;20644;-84
2022/10/04 04:47:32;;;;;;;21.77;15.63;;;9.80;99.90;;;;;;5115497;28;20267;-84
2022/10/04 04:50:07;;;;;;;29.03;16.20;;;9.80;99.90;;;;;;5115259;28;20201;-84
2022/10/04 04:52:37;;;;;;;24.87;15.47;;;9.70;99.90;;;;;;5115498;28;20584;-84
2022/10/04 04:55:15;;;;;;;22.67;14.67;;;9.70;99.90;;;;;;5115961;28;20559;-85
2022/10/04 04:57:43;;;;;;;25.07;14.90;;;9.70;99.90;;;;;;5115571;28;20201;-84
2022/10/04 05:00:17;;;;;;;21.37;15.00;;;9.70;99.90;;;;;;5114573;28;20238;-84
2022/10/04 05:02:52;;;;;;;22.93;15.00;;;9.70;99.90;;;;;;5114665;28;20232;-85
2022/10/04 05:05:22;;;;;;;21.53;14.97;;;9.70;99.90;;;;;;5114959;28;20215;-83
2022/10/04 05:07:49;;;;;;;25.03;14.03;;;9.80;99.90;;;;;;5114202;28;20242;-85
2022/10/04 05:10:28;;;;;;;22.37;14.70;;;9.80;99.90;;;;;;5114778;28;20208;-84
2022/10/04 05:12:59;;;;;;;25.50;15.67;;;9.80;99.90;;;;;;5115159;28;20204;-85
2022/10/04 05:15:31;;;;;;;21.40;14.07;;;9.80;99.90;;;;;;5115426;28;20284;-84
2022/10/04 05:17:58;;;;;;;22.80;15.80;;;9.80;99.90;;;;;;5114765;28;20204;-85
2022/10/04 05:20:26;;;;;;;25.95;16.15;;;9.70;99.90;;;;;;5114890;28;20834;-84
2022/10/04 05:22:54;;;;;;;21.73;13.67;;;9.80;99.90;;;;;;5115250;28;20247;-84
2022/10/04 05:25:29;;;;;;;21.80;14.23;;;9.80;99.90;;;;;;5114426;28;20280;-85
2022/10/04 05:27:56;;;;;;;21.80;13.57;;;9.80;99.90;;;;;;5114756;28;20231;-84
2022/10/04 05:30:37;;;;;;;17.53;13.13;;;9.80;99.90;;;;;;5114948;28;20207;-84
2022/10/04 05:33:06;;;;;;;18.70;12.43;;;9.60;99.90;;;;;;5114695;28;20192;-85
2022/10/04 05:35:51;;;;;;;26.83;13.37;;;9.60;99.90;;;;;;5115017;28;20212;-84
2022/10/04 05:38:27;;;;;;;23.90;13.57;;;9.70;99.90;;;;;;5114722;28;20196;-84
2022/10/04 05:41:05;;;;;;;22.20;12.80;;;9.70;99.90;;;;;;5115092;28;20209;-85
2022/10/04 05:43:36;;;;;;;18.53;12.53;;;9.70;99.90;;;;;;5114585;28;20211;-84
2022/10/04 05:46:24;;;;;;;20.33;12.63;;;9.70;99.90;;;;;;5114613;28;20204;-84
2022/10/04 05:48:55;;;;;;;22.13;12.50;;;9.50;99.90;;;;;;5114502;28;20231;-84
2022/10/04 05:51:25;;;;;;;20.73;11.67;;;9.40;99.90;;;;;;5114851;28;20208;-85
2022/10/04 05:53:54;;;;;;;21.07;12.50;;;9.40;99.90;;;;;;5114398;28;20200;-84
2022/10/04 05:56:51;;;;;;;20.30;12.73;;;9.40;99.90;;;;;;5114516;28;20204;-84
2022/10/04 05:59:54;;;;;;;22.67;12.43;;;9.30;99.90;;;;;;5113979;27;20217;-84
2022/10/04 06:02:35;;;;;;;18.40;12.50;;;9.20;99.90;;;;;;5114016;28;20731;-84
2022/10/04 06:05:13;;;;;;;21.47;12.60;;;9.30;99.90;;;;;;5114112;28;20287;-85
2022/10/04 06:07:43;;;;;;;20.33;12.53;;;9.30;99.90;;;;;;5114186;28;20234;-84
2022/10/04 06:10:41;;;;;;;23.53;11.97;;;9.30;99.90;;;;;;5114219;28;20192;-85
2022/10/04 06:13:21;;;;;;;22.63;12.47;;;9.40;99.90;;;;;;5107607;28;20204;-85
2022/10/04 06:15:59;;;;;;;27.47;12.27;;;9.40;99.90;;;;;;5113235;28;20207;-84
2022/10/04 06:18:54;;;;;;;19.58;12.25;;;9.40;99.90;;;;;;5113683;28;20436;-86
2022/10/04 06:21:24;;;;;;;18.27;11.70;;;9.50;99.90;;;;;;5113945;28;20204;-85
2022/10/04 06:23:59;;;;;;;21.53;12.27;;;9.50;99.90;;;;;;5113880;28;20664;-85
2022/10/04 06:26:35;;;;;;;23.67;12.30;;;9.50;99.90;;;;;;5113630;28;20188;-84
2022/10/04 06:29:09;;;;;;;21.40;12.47;;;9.50;99.90;;;;;;5113476;28;20238;-84
2022/10/04 06:32:11;;;;;;;25.90;11.60;;;9.60;99.90;;;;;;5113487;28;20199;-82
2022/10/04 06:34:53;;;;;;;17.53;12.27;;;9.60;99.90;;;;;;5113509;28;21004;-82
2022/10/04 06:37:59;;;;;;;23.90;12.20;;;9.70;99.90;;;;;;5113971;28;20207;-84
2022/10/04 06:40:46;;;;;;;19.40;11.90;;;9.60;99.90;;;;;;5092033;28;20574;-85
2022/10/04 06:43:26;;;;;;;17.67;11.13;;;9.60;99.90;;;;;;5112540;28;20189;-85
2022/10/04 06:46:08;;;;;;;19.80;12.03;;;9.60;99.90;;;;;;5110518;28;20204;-85
2022/10/04 06:48:55;;;;;;;18.10;12.03;;;9.60;99.90;;;;;;5113452;28;20204;-84
2022/10/04 06:51:36;;;;;;;25.00;12.43;;;9.60;99.90;;;;;;5112213;28;20724;-84
2022/10/04 06:54:16;;;;;;;15.07;11.50;;;9.70;99.90;;;;;;5110662;28;20569;-84
2022/10/04 06:56:58;;;;;;;16.90;11.50;;;9.80;99.90;;;;;;5110713;28;20555;-86
2022/10/04 06:59:49;;;;;;;15.47;11.50;;;9.90;99.90;;;;;;5110577;28;20662;-85
2022/10/04 07:02:24;;;;;;;19.60;11.70;;;9.90;99.90;;;;;;5113485;28;20288;-85
2022/10/04 07:04:56;;;;;;;21.03;11.97;;;9.90;99.90;;;;;;5113360;28;20295;-86
2022/10/04 07:10:25;;;;;;;17.23;11.73;;;10.00;99.90;;;;;;5110333;28;20203;-83
2022/10/04 07:13:04;;;;;;;20.87;11.90;;;10.10;99.90;;;;;;5110734;28;20563;-86
2022/10/04 07:15:36;;;;;;;25.47;11.83;;;10.10;99.90;;;;;;5112408;28;20185;-86
2022/10/04 07:18:13;;;;;;;18.17;11.80;;;10.20;99.90;;;;;;5113041;28;20675;-85
2022/10/04 07:20:41;;;;;;;18.57;11.57;;;10.40;99.90;;;;;;5112890;28;20198;-85
2022/10/04 07:23:14;;;;;;;15.53;11.47;;;10.30;99.90;;;;;;5113260;28;20201;-85
2022/10/04 07:25:46;;;;;;;19.03;11.40;;;10.40;99.90;;;;;;5113108;28;20205;-86
2022/10/04 07:31:10;;;;;;;20.97;10.97;;;10.50;99.90;;;;;;5112767;28;20205;-86
2022/10/04 07:33:45;;;;;;;20.33;11.20;;;10.60;99.90;;;;;;5113110;28;20200;-86
2022/10/04 07:36:15;;;;;;;19.97;10.70;;;10.70;99.90;;;;;;5113123;28;20209;-85
2022/10/04 07:38:47;;;;;;;20.87;10.87;;;10.80;99.90;;;;;;5113313;28;20198;-83
2022/10/04 07:41:23;;;;;;;19.97;11.40;;;10.90;99.90;;;;;;5107903;28;20230;-84
2022/10/04 07:43:54;;;;;;;16.93;10.27;;;11.00;99.90;;;;;;5112378;28;20207;-84
2022/10/04 07:46:32;;;;;;;16.00;11.03;;;10.90;99.90;;;;;;5114131;28;20202;-85
2022/10/04 07:49:01;;;;;;;14.40;10.23;;;10.80;99.90;;;;;;5133482;27;20220;-84
2022/10/04 07:51:33;;;;;;;14.83;10.20;;;10.90;99.90;;;;;;5133163;28;20201;-84
2022/10/04 07:54:05;;;;;;;21.97;10.90;;;10.90;99.90;;;;;;5133254;27;20577;-87
2022/10/04 07:56:38;;;;;;;18.90;9.83;;;11.00;99.90;;;;;;5137043;27;20661;-88
2022/10/04 07:59:22;;;;;;;19.67;10.07;;;11.00;99.90;;;;;;5137076;27;20196;-85
2022/10/04 08:02:00;;;;;;;16.53;9.90;;;11.10;99.90;;;;;;5136402;27;20209;-85
2022/10/04 08:04:41;;;;;;;12.10;9.17;;;11.20;99.90;;;;;;5137311;27;20227;-85
2022/10/04 08:07:17;;;;;;;17.07;10.20;;;11.20;99.90;;;;;;5137385;27;20204;-84
2022/10/04 08:09:56;;;;;;;14.40;9.53;;;11.40;99.90;;;;;;5137196;27;20568;-85
2022/10/04 08:12:30;;;;;;;16.13;9.17;;;11.60;99.90;;;;;;5136995;27;20202;-86
2022/10/04 08:15:23;;;;;;;14.23;9.23;;;11.60;99.90;;;;;;5137199;27;20205;-85
2022/10/04 08:17:57;;;;;;;13.32;9.50;;;11.70;99.90;;;;;;5136619;27;20454;-85
2022/10/04 08:20:38;;;;;;;9.87;7.97;;;11.80;99.90;;;;;;5137225;27;20287;-84
2022/10/04 08:23:19;;;;;;;9.30;7.90;;;11.90;99.90;;;;;;5136928;27;20207;-84
2022/10/04 08:25:53;;;;;;;11.73;8.03;;;12.00;99.90;;;;;;5136942;27;20634;-85
2022/10/04 08:31:28;;;;;;;13.03;8.97;;;12.10;99.90;;;;;;5137353;27;20245;-84
2022/10/04 08:34:10;;;;;;;11.93;8.60;;;12.20;99.90;;;;;;5137213;27;20224;-85
2022/10/04 08:36:56;;;;;;;17.93;8.40;;;12.20;99.90;;;;;;5136895;27;20214;-84
2022/10/04 08:39:40;;;;;;;12.73;8.63;;;12.30;99.90;;;;;;5137374;27;20207;-84
2022/10/04 08:42:46;;;;;;;13.67;8.97;;;12.40;99.90;;;;;;5137024;27;20223;-85
2022/10/04 08:45:34;;;;;;;14.23;9.30;;;12.50;99.90;;;;;;5106875;27;20214;-87
2022/10/04 08:48:23;;;;;;;11.30;9.00;;;12.60;99.90;;;;;;5136709;27;20226;-86
2022/10/04 08:51:38;;;;;;;11.73;9.53;;;12.60;99.90;;;;;;5136783;27;20254;-86
2022/10/04 08:54:39;;;;;;;11.43;8.77;;;12.60;99.90;;;;;;5136523;27;20206;-86
2022/10/04 08:57:32;;;;;;;13.00;10.33;;;12.60;99.90;;;;;;5136364;27;20559;-86
2022/10/04 09:00:16;;;;;;;12.13;9.60;;;12.70;99.90;;;;;;5136354;27;20207;-86
2022/10/04 09:03:28;;;;;;;18.93;9.73;;;12.80;99.90;;;;;;5136162;27;20715;-84
2022/10/04 09:06:22;;;;;;;14.53;9.67;;;13.00;99.90;;;;;;5127620;27;20214;-85
2022/10/04 09:09:43;;;;;;;12.50;9.50;;;13.10;99.90;;;;;;5136121;27;20612;-85
2022/10/04 09:12:44;;;;;;;16.13;9.73;;;13.20;99.90;;;;;;5136087;27;20251;-86
2022/10/04 09:15:24;;;;;;;13.70;9.80;;;13.20;99.90;;;;;;5135763;27;20954;-84
2022/10/04 09:18:01;;;;;;;13.73;9.07;;;13.30;99.90;;;;;;5136001;27;20302;-85
2022/10/04 09:20:46;;;;;;;17.57;9.83;;;13.40;99.90;;;;;;5135849;27;20206;-84
2022/10/04 09:23:36;;;;;;;13.97;9.63;;;13.50;99.90;;;;;;5135762;27;20202;-85
2022/10/04 09:26:20;;;;;;;12.87;8.93;;;13.50;99.90;;;;;;5135667;27;20203;-86
2022/10/04 09:29:14;;;;;;;12.83;9.00;;;13.60;99.90;;;;;;5135720;27;20621;-84
2022/10/04 09:32:11;;;;;;;14.70;9.53;;;13.70;99.90;;;;;;5135527;27;20194;-82
2022/10/04 09:35:05;;;;;;;13.80;8.80;;;13.90;99.90;;;;;;5135270;27;20204;-81
2022/10/04 09:37:42;;;;;;;13.43;9.10;;;13.90;99.90;;;;;;5135644;27;20381;-81
2022/10/04 09:41:00;;;;;;;14.17;8.83;;;14.10;99.90;;;;;;5135609;27;20207;-81
2022/10/04 09:43:53;;;;;;;8.87;7.97;;;14.10;99.90;;;;;;5135408;27;20242;-85
2022/10/04 09:46:44;;;;;;;13.97;8.57;;;14.20;99.90;;;;;;5133359;27;20562;-80
2022/10/04 09:49:31;;;;;;;11.93;8.43;;;14.40;99.90;;;;;;5123473;27;20262;-81
2022/10/04 09:52:08;;;;;;;12.10;8.30;;;14.50;99.90;;;;;;5135373;27;20251;-81
2022/10/04 09:54:55;;;;;;;12.03;8.00;;;14.50;99.90;;;;;;5134731;27;20199;-84
2022/10/04 09:57:39;;;;;;;12.17;8.00;;;14.60;99.90;;;;;;5135164;27;20210;-81
2022/10/04 10:00:22;;;;;;;10.60;7.70;;;14.60;99.90;;;;;;5134879;27;20718;-82
2022/10/04 10:03:23;;;;;;;8.03;7.23;;;14.60;99.90;;;;;;5135170;27;20283;-83
2022/10/04 10:06:22;;;;;;;10.57;7.10;;;14.60;99.90;;;;;;5135486;27;20206;-86
2022/10/04 10:09:05;;;;;;;9.23;6.50;;;14.70;99.90;;;;;;5134747;27;20713;-85
2022/10/04 10:15:07;;;;;;;10.23;6.57;;;14.80;99.90;;;;;;5135268;27;20182;-86
2022/10/04 10:17:41;;;;;;;9.37;6.57;;;15.00;99.90;;;;;;5071141;28;20197;-86
2022/10/04 10:20:37;;;;;;;11.87;6.27;;;15.10;99.90;;;;;;5122988;27;20298;-84
2022/10/04 10:23:40;;;;;;;7.77;6.10;;;15.20;99.90;;;;;;5135186;27;20262;-81
2022/10/04 10:26:26;;;;;;;8.80;6.17;;;15.30;99.90;;;;;;5121019;27;20200;-85
2022/10/04 10:29:28;;;;;;;9.23;6.20;;;15.40;99.90;;;;;;5134581;27;20230;-83
2022/10/04 10:32:19;;;;;;;9.90;6.50;;;15.50;99.90;;;;;;5139204;27;20307;-82
2022/10/04 10:35:19;;;;;;;8.00;6.10;;;15.60;99.90;;;;;;5132167;27;20229;-82
2022/10/04 10:38:02;;;;;;;8.17;6.00;;;15.50;99.90;;;;;;5111243;28;20285;-84
2022/10/04 10:40:59;;;;;;;6.83;5.60;;;15.50;99.90;;;;;;5111734;28;20198;-82
2022/10/04 10:44:00;;;;;;;5.53;5.03;;;15.60;99.90;;;;;;5113873;28;20190;-84
2022/10/04 10:46:51;;;;;;;9.43;5.30;;;15.70;99.90;;;;;;5114108;28;20197;-84
2022/10/04 10:49:35;;;;;;;7.47;5.63;;;15.80;99.90;;;;;;5113444;28;20229;-83
2022/10/04 10:52:45;;;;;;;6.87;5.10;;;15.90;99.90;;;;;;5113315;28;20665;-82
2022/10/04 10:55:34;;;;;;;8.93;5.60;;;16.10;99.90;;;;;;5113426;28;20204;-82
2022/10/04 10:58:39;;;;;;;11.20;6.03;;;16.30;99.90;;;;;;5112580;28;20192;-82
2022/10/04 11:01:25;;;;;;;10.27;6.27;;;16.20;99.90;;;;;;5110654;28;20207;-82
2022/10/04 11:04:13;;;;;;;13.27;6.33;;;16.10;99.90;;;;;;5112994;28;20711;-81
2022/10/04 11:07:12;;;;;;;10.00;6.50;;;16.20;99.90;;;;;;5112991;28;20578;-80
2022/10/04 11:10:13;;;;;;;9.83;6.10;;;16.30;99.90;;;;;;5113455;28;20220;-81
2022/10/04 11:13:02;;;;;;;7.23;5.97;;;16.40;99.90;;;;;;5113051;28;20210;-81
2022/10/04 11:16:00;;;;;;;14.13;5.73;;;16.40;99.90;;;;;;5113027;28;20212;-82
2022/10/04 11:18:57;;;;;;;8.50;6.20;;;16.50;99.90;;;;;;5113086;28;20205;-81
2022/10/04 11:22:09;;;;;;;10.17;6.03;;;16.60;99.90;;;;;;5112754;28;20212;-82
2022/10/04 11:25:11;;;;;;;8.63;4.90;;;16.70;99.90;;;;;;5087794;28;20205;-82
2022/10/04 11:27:49;;;;;;;11.77;5.57;;;16.80;99.90;;;;;;5112779;27;20245;-82
2022/10/04 11:30:23;;;;;;;10.40;5.57;;;16.80;99.90;;;;;;5115413;28;20231;-79
2022/10/04 11:33:31;;;;;;;10.70;5.50;;;16.70;99.90;;;;;;5116872;28;20284;-82
2022/10/04 11:36:28;;;;;;;7.87;5.07;;;16.70;99.90;;;;;;5116529;28;20210;-82
2022/10/04 11:39:17;;;;;;;6.93;5.10;;;16.80;99.90;;;;;;5116773;28;20562;-82
2022/10/04 11:41:54;;;;;;;7.45;5.50;;;16.80;99.90;;;;;;5114798;28;20924;-82
2022/10/04 11:44:51;;;;;;;5.80;4.60;;;16.80;99.90;;;;;;5117180;28;20217;-84
2022/10/04 11:47:40;;;;;;;7.77;5.47;;;17.00;99.90;;;;;;5116714;28;20201;-83
2022/10/04 11:50:23;;;;;;;9.43;4.57;;;17.20;99.90;;;;;;5116184;28;20213;-82
2022/10/04 11:53:32;;;;;;;14.73;5.20;;;17.20;99.90;;;;;;5116785;28;20201;-81
2022/10/04 11:56:15;;;;;;;9.37;5.50;;;17.20;99.90;;;;;;5089133;28;20219;-83
2022/10/04 11:58:55;;;;;;;9.17;5.07;;;17.40;99.90;;;;;;5116650;28;20289;-81
2022/10/04 12:01:58;;;;;;;8.03;4.80;;;17.30;99.90;;;;;;5121273;27;20230;-77
2022/10/04 12:05:19;;;;;;;10.80;5.03;;;17.40;99.90;;;;;;5115712;28;20239;-83
2022/10/04 12:08:00;;;;;;;6.57;5.13;;;17.50;99.90;;;;;;5115940;28;20202;-83
2022/10/04 12:10:33;;;;;;;9.57;5.50;;;17.40;99.90;;;;;;5120563;28;20448;-88
2022/10/04 12:13:29;;;;;;;6.87;4.97;;;17.50;99.90;;;;;;5117492;28;20199;-87
2022/10/04 12:16:28;;;;;;;8.93;4.50;;;17.70;99.90;;;;;;5116639;28;20194;-85
2022/10/04 12:19:42;;;;;;;7.83;4.37;;;17.80;99.90;;;;;;5125791;27;20643;-85
2022/10/04 12:22:31;;;;;;;8.73;4.40;;;18.00;99.90;;;;;;5134788;27;20207;-85
2022/10/04 12:25:41;;;;;;;4.63;4.07;;;18.00;99.90;;;;;;5137242;27;20200;-87
2022/10/04 12:28:35;;;;;;;5.27;3.90;;;18.00;99.90;;;;;;5102137;27;20292;-85
2022/10/04 12:31:20;;;;;;;6.97;4.20;;;17.90;99.90;;;;;;5126803;27;20269;-86
2022/10/04 12:33:55;;;;;;;6.73;4.10;;;17.70;99.90;;;;;;5137390;27;20227;-86
2022/10/04 12:36:57;;;;;;;4.97;4.10;;;17.80;99.90;;;;;;5137094;27;20218;-86
2022/10/04 12:39:39;;;;;;;7.03;4.00;;;17.70;99.90;;;;;;5132857;27;20204;-82
2022/10/04 12:42:19;;;;;;;8.00;4.80;;;17.70;99.90;;;;;;5136409;27;20205;-82
2022/10/04 12:45:00;;;;;;;7.63;5.20;;;17.80;99.90;;;;;;5136951;27;20263;-82
2022/10/04 12:48:02;;;;;;;7.63;4.87;;;17.90;99.90;;;;;;5136576;27;20197;-82
2022/10/04 12:50:44;;;;;;;9.20;5.10;;;18.10;99.90;;;;;;5135339;27;20708;-81
2022/10/04 12:53:23;;;;;;;6.57;4.53;;;18.20;99.90;;;;;;5136081;27;20660;-81
2022/10/04 12:56:07;;;;;;;5.10;4.13;;;18.20;99.90;;;;;;5136510;27;20200;-82
2022/10/04 12:58:48;;;;;;;8.37;4.23;;;18.20;99.90;;;;;;5136369;27;20207;-80
2022/10/04 13:01:21;;;;;;;9.90;5.47;;;18.20;99.90;;;;;;5136244;27;20195;-81
2022/10/04 13:04:11;;;;;;;8.50;4.97;;;18.20;99.90;;;;;;5136118;27;20305;-82
2022/10/04 13:06:52;;;;;;;9.20;4.90;;;18.20;99.90;;;;;;5136360;27;20213;-82
2022/10/04 13:09:30;;;;;;;10.90;5.13;;;18.30;99.90;;;;;;5136071;27;20215;-81
2022/10/04 13:12:11;;;;;;;7.63;4.20;;;18.40;99.90;;;;;;5135952;27;20192;-80
2022/10/04 13:14:59;;;;;;;9.67;4.53;;;18.50;99.90;;;;;;5136080;27;20206;-82
2022/10/04 13:17:38;;;;;;;4.37;3.97;;;18.60;99.90;;;;;;5136083;27;20203;-81
2022/10/04 13:20:25;;;;;;;5.83;4.17;;;18.50;99.90;;;;;;5135863;27;20203;-82
2022/10/04 13:22:59;;;;;;;4.67;3.60;;;18.60;99.90;;;;;;5136440;27;20208;-81
2022/10/04 13:25:39;;;;;;;6.87;4.17;;;18.70;99.90;;;;;;5136218;27;20204;-82
2022/10/04 13:28:15;;;;;;;8.80;4.07;;;18.60;99.90;;;;;;5135618;27;20200;-82
2022/10/04 13:30:49;;;;;;;4.27;3.87;;;18.70;99.90;;;;;;5135554;27;20230;-82
2022/10/04 13:33:25;;;;;;;6.23;3.50;;;18.70;99.90;;;;;;5135942;27;20209;-82
2022/10/04 13:36:00;;;;;;;7.97;3.97;;;18.80;99.90;;;;;;5135674;27;20665;-80
2022/10/04 13:38:55;;;;;;;7.40;3.90;;;18.80;99.90;;;;;;5135596;27;20194;-81
2022/10/04 13:41:37;;;;;;;5.93;3.33;;;18.80;99.90;;;;;;5135351;27;20192;-81
2022/10/04 13:44:32;;;;;;;5.87;3.87;;;18.90;99.90;;;;;;5135220;27;20206;-81
2022/10/04 13:47:30;;;;;;;8.23;3.77;;;19.00;99.90;;;;;;5135470;27;20206;-82
2022/10/04 13:50:22;;;;;;;8.70;3.43;;;19.00;99.90;;;;;;5135010;27;20228;-81
2022/10/04 13:58:45;;;;;;;2.70;2.50;;;19.10;99.90;;;;;;5135401;27;20191;-85
2022/10/04 14:01:45;;;;;;;8.90;3.60;;;19.20;99.90;;;;;;5135032;27;20202;-85